Time;durP1;ratioP1;P1;durP2;ratioP2;P2;SDS_P1;SDS_P2;PMS_P1;PMS_P2;Temp;Humidity;BMP_temperature;BMP_pressure;BME280_temperature;BME280_humidity;BME280_pressure;Samples;Min_cycle;Max_cycle;Signal;HPM_P1;HPM_P2
2022/04/14 00:01:53;;;;;;;17.85;7.97;;;10.80;99.90;;;;;;5054966;28;20105;-66
2022/04/14 00:04:19;;;;;;;16.20;7.43;;;10.80;99.90;;;;;;5053805;28;20025;-65
2022/04/14 00:06:45;;;;;;;13.90;7.15;;;10.80;99.90;;;;;;5058559;28;20075;-65
2022/04/14 00:09:10;;;;;;;17.30;7.55;;;10.80;99.90;;;;;;5059775;28;20033;-66
2022/04/14 00:11:36;;;;;;;16.15;7.82;;;10.80;99.90;;;;;;5057788;28;20028;-65
2022/04/14 00:14:02;;;;;;;17.02;8.13;;;10.80;99.90;;;;;;5059069;28;20040;-65
2022/04/14 00:16:27;;;;;;;14.73;7.35;;;10.90;99.90;;;;;;5059786;28;20053;-66
2022/04/14 00:18:54;;;;;;;16.88;7.78;;;10.90;99.90;;;;;;5055215;28;20044;-65
2022/04/14 00:21:20;;;;;;;14.90;7.20;;;10.90;99.90;;;;;;5056003;28;20560;-66
2022/04/14 00:23:45;;;;;;;13.63;7.05;;;10.90;99.90;;;;;;5055575;28;20075;-66
2022/04/14 00:26:11;;;;;;;12.50;7.10;;;10.90;99.90;;;;;;5060008;28;20025;-66
2022/04/14 00:28:37;;;;;;;16.30;7.75;;;10.90;99.90;;;;;;5052582;28;20025;-66
2022/04/14 00:31:04;;;;;;;18.00;8.40;;;10.90;99.90;;;;;;5059412;28;20053;-66
2022/04/14 00:33:30;;;;;;;16.00;7.32;;;11.00;99.90;;;;;;5057382;28;20093;-66
2022/04/14 00:35:56;;;;;;;15.85;8.38;;;10.90;99.90;;;;;;5058151;28;20028;-66
2022/04/14 00:38:21;;;;;;;17.02;8.63;;;11.00;99.90;;;;;;5055383;28;20045;-66
2022/04/14 00:40:48;;;;;;;15.82;8.80;;;11.00;99.90;;;;;;5057467;28;20040;-66
2022/04/14 00:43:14;;;;;;;20.02;9.35;;;10.90;99.90;;;;;;5061209;28;20039;-66
2022/04/14 00:45:39;;;;;;;15.57;10.15;;;10.90;99.90;;;;;;5058530;28;20548;-66
2022/04/14 00:48:05;;;;;;;19.88;9.35;;;10.90;99.90;;;;;;5056717;28;20036;-66
2022/04/14 00:50:31;;;;;;;15.88;8.75;;;10.80;99.90;;;;;;5059994;28;20037;-66
2022/04/14 00:52:58;;;;;;;15.85;9.57;;;10.70;99.90;;;;;;5059193;28;20029;-66
2022/04/14 00:55:23;;;;;;;18.40;9.27;;;10.80;99.90;;;;;;5060265;28;20055;-66
2022/04/14 00:57:49;;;;;;;17.30;9.68;;;10.70;99.90;;;;;;5057400;28;20044;-65
2022/04/14 01:00:15;;;;;;;16.83;9.60;;;10.70;99.90;;;;;;5054997;28;20032;-66
2022/04/14 01:02:41;;;;;;;15.75;9.13;;;10.60;99.90;;;;;;5050745;28;20041;-65
2022/04/14 01:05:09;;;;;;;23.98;10.70;;;10.60;99.90;;;;;;5052710;28;20029;-66
2022/04/14 01:07:36;;;;;;;19.17;10.50;;;10.60;99.90;;;;;;5054831;28;20029;-65
2022/04/14 01:10:03;;;;;;;19.17;10.70;;;10.60;99.90;;;;;;5062286;28;20025;-65
2022/04/14 01:12:31;;;;;;;18.75;10.32;;;10.50;99.90;;;;;;5055642;28;20431;-65
2022/04/14 01:14:56;;;;;;;19.40;11.88;;;10.50;99.90;;;;;;5047443;28;20021;-66
2022/04/14 01:17:22;;;;;;;21.85;11.05;;;10.50;99.90;;;;;;5052196;28;20057;-66
2022/04/14 01:19:48;;;;;;;19.70;11.35;;;10.50;99.90;;;;;;5057696;28;20017;-66
2022/04/14 01:22:28;;;;;;;17.17;10.57;;;10.40;99.90;;;;;;5061457;28;20029;-65
2022/04/14 01:24:57;;;;;;;18.85;11.07;;;10.50;99.90;;;;;;5060841;28;20191;-66
2022/04/14 01:27:23;;;;;;;20.27;12.02;;;10.40;99.90;;;;;;5065468;28;20021;-66
2022/04/14 01:29:51;;;;;;;20.77;11.75;;;10.40;99.90;;;;;;5059621;28;20047;-65
2022/04/14 01:32:18;;;;;;;20.73;11.88;;;10.30;99.90;;;;;;5054419;28;20067;-65
2022/04/14 01:34:45;;;;;;;19.75;11.57;;;10.20;99.90;;;;;;5052566;28;20032;-65
2022/04/14 01:37:10;;;;;;;23.45;12.70;;;10.10;99.90;;;;;;5058247;28;20041;-66
2022/04/14 01:39:36;;;;;;;26.15;12.88;;;10.10;99.90;;;;;;5059141;28;20024;-66
2022/04/14 01:42:02;;;;;;;18.40;11.50;;;10.10;99.90;;;;;;5058635;28;20033;-65
2022/04/14 01:44:27;;;;;;;21.55;11.20;;;10.10;99.90;;;;;;5052252;28;20043;-66
2022/04/14 01:46:53;;;;;;;19.77;12.70;;;10.00;99.90;;;;;;5059938;28;20043;-66
2022/04/14 01:49:19;;;;;;;20.50;11.65;;;9.90;99.90;;;;;;5055243;28;20031;-66
2022/04/14 01:51:44;;;;;;;22.50;12.88;;;9.90;99.90;;;;;;5056562;28;20059;-66
2022/04/14 01:54:10;;;;;;;23.38;13.00;;;9.80;99.90;;;;;;5058655;28;20059;-65
2022/04/14 01:56:36;;;;;;;26.73;14.27;;;9.70;99.90;;;;;;5056304;28;20037;-65
2022/04/14 01:59:01;;;;;;;25.85;14.45;;;9.70;99.90;;;;;;5055711;28;20036;-65
2022/04/14 02:01:28;;;;;;;24.30;14.63;;;9.70;99.90;;;;;;5053891;28;20080;-66
2022/04/14 02:03:54;;;;;;;26.30;14.27;;;9.60;99.90;;;;;;5057475;28;20395;-65
2022/04/14 02:06:20;;;;;;;26.15;14.32;;;9.60;99.90;;;;;;5052867;28;21049;-66
2022/04/14 02:08:46;;;;;;;24.52;14.85;;;9.60;99.90;;;;;;5054230;28;20123;-65
2022/04/14 02:11:12;;;;;;;27.52;15.63;;;9.60;99.90;;;;;;5056988;28;20056;-65
2022/04/14 02:13:38;;;;;;;23.85;14.45;;;9.60;99.90;;;;;;5058859;28;20044;-66
2022/04/14 02:16:04;;;;;;;21.92;14.02;;;9.50;99.90;;;;;;5056849;28;20057;-65
2022/04/14 02:18:29;;;;;;;21.67;13.82;;;9.50;99.90;;;;;;5054137;28;20042;-65
2022/04/14 02:20:55;;;;;;;23.38;15.07;;;9.50;99.90;;;;;;5057635;28;20060;-66
2022/04/14 02:23:22;;;;;;;24.67;15.20;;;9.40;99.90;;;;;;5054678;28;20025;-65
2022/04/14 02:25:48;;;;;;;27.83;15.38;;;9.40;99.90;;;;;;5062152;28;20024;-65
2022/04/14 02:28:14;;;;;;;24.73;15.40;;;9.30;99.90;;;;;;5048708;28;20061;-65
2022/04/14 02:30:40;;;;;;;23.00;15.40;;;9.30;99.90;;;;;;5049484;28;20301;-65
2022/04/14 02:33:06;;;;;;;22.90;13.00;;;9.20;99.90;;;;;;5054698;28;20025;-66
2022/04/14 02:35:31;;;;;;;23.77;14.88;;;9.20;99.90;;;;;;5054736;28;20033;-65
2022/04/14 02:37:57;;;;;;;25.50;16.17;;;9.20;99.90;;;;;;5054856;28;20049;-65
2022/04/14 02:40:26;;;;;;;28.35;17.20;;;9.20;99.90;;;;;;5055353;28;20101;-65
2022/04/14 02:42:57;;;;;;;27.52;16.95;;;9.20;99.90;;;;;;5055020;28;20017;-65
2022/04/14 02:45:23;;;;;;;28.20;17.42;;;9.10;99.90;;;;;;5061878;28;20045;-65
2022/04/14 02:47:49;;;;;;;26.23;17.33;;;9.10;99.90;;;;;;5056965;28;20025;-65
2022/04/14 02:50:16;;;;;;;27.17;17.73;;;9.10;99.90;;;;;;5057458;28;20025;-65
2022/04/14 02:52:42;;;;;;;32.80;19.00;;;9.20;99.90;;;;;;5056508;28;20036;-66
2022/04/14 02:55:09;;;;;;;32.33;19.15;;;9.20;99.90;;;;;;5050384;28;20037;-66
2022/04/14 02:57:35;;;;;;;33.65;19.30;;;9.10;99.90;;;;;;5054060;28;20471;-65
2022/04/14 03:00:03;;;;;;;31.33;18.92;;;9.20;99.90;;;;;;5056933;28;20045;-66
2022/04/14 03:02:29;;;;;;;29.48;17.92;;;9.10;99.90;;;;;;5054358;28;20032;-65
2022/04/14 03:04:54;;;;;;;28.05;17.48;;;9.10;99.90;;;;;;5052829;28;20037;-65
2022/04/14 03:07:20;;;;;;;32.75;18.88;;;9.00;99.90;;;;;;5037773;28;20059;-65
2022/04/14 03:09:46;;;;;;;32.95;18.50;;;9.00;99.90;;;;;;5053883;28;20049;-66
2022/04/14 03:12:12;;;;;;;32.03;20.77;;;9.00;99.90;;;;;;5049700;28;20346;-66
2022/04/14 03:14:38;;;;;;;33.15;20.00;;;9.10;99.90;;;;;;5052301;28;20089;-65
2022/04/14 03:17:04;;;;;;;32.38;19.35;;;9.00;99.90;;;;;;5058134;28;20049;-65
2022/04/14 03:19:30;;;;;;;32.25;18.88;;;9.10;99.90;;;;;;5055318;28;20025;-65
2022/04/14 03:21:58;;;;;;;32.97;20.00;;;9.00;99.90;;;;;;5055513;28;20558;-66
2022/04/14 03:24:23;;;;;;;32.35;19.55;;;9.00;99.90;;;;;;5052671;28;20068;-66
2022/04/14 03:26:49;;;;;;;32.40;20.73;;;9.00;99.90;;;;;;5054883;28;20033;-65
2022/04/14 03:29:15;;;;;;;29.50;19.42;;;8.90;99.90;;;;;;5054293;28;20039;-66
2022/04/14 03:31:40;;;;;;;26.40;17.65;;;8.80;99.90;;;;;;5051173;28;20033;-65
2022/04/14 03:34:06;;;;;;;28.73;18.17;;;8.80;99.90;;;;;;5056486;28;20021;-66
2022/04/14 03:36:31;;;;;;;32.92;20.02;;;8.70;99.90;;;;;;5055110;28;20134;-65
2022/04/14 03:38:57;;;;;;;29.95;19.27;;;8.60;99.90;;;;;;5054785;28;20060;-65
2022/04/14 03:41:23;;;;;;;30.52;19.05;;;8.60;99.90;;;;;;5060177;28;20040;-65
2022/04/14 03:43:48;;;;;;;37.50;22.35;;;8.50;99.90;;;;;;5056356;28;20041;-66
2022/04/14 03:46:15;;;;;;;31.55;20.60;;;8.50;99.90;;;;;;5057878;28;20749;-66
2022/04/14 03:48:44;;;;;;;37.67;21.98;;;8.50;99.90;;;;;;5054173;28;20040;-65
2022/04/14 03:51:10;;;;;;;50.72;30.65;;;8.50;99.90;;;;;;5057276;28;20033;-65
2022/04/14 03:53:36;;;;;;;45.13;27.83;;;8.50;99.90;;;;;;5057147;28;20040;-66
2022/04/14 03:56:01;;;;;;;37.03;23.25;;;8.50;99.90;;;;;;5058426;28;20040;-65
2022/04/14 03:58:27;;;;;;;39.67;25.30;;;8.40;99.90;;;;;;5052855;28;20153;-65
2022/04/14 04:00:53;;;;;;;39.92;25.13;;;8.40;99.90;;;;;;5053643;28;20036;-66
2022/04/14 04:03:18;;;;;;;44.13;26.63;;;8.50;99.90;;;;;;5061683;28;20594;-65
2022/04/14 04:05:44;;;;;;;45.78;26.77;;;8.50;99.90;;;;;;5058866;28;20369;-65
2022/04/14 04:08:10;;;;;;;44.33;26.48;;;8.50;99.90;;;;;;5054678;28;20485;-65
2022/04/14 04:10:36;;;;;;;42.40;26.50;;;8.50;99.90;;;;;;5058129;28;20032;-65
2022/04/14 04:13:02;;;;;;;43.90;27.58;;;8.40;99.90;;;;;;5059630;28;20550;-67
2022/04/14 04:15:27;;;;;;;46.92;27.83;;;8.30;99.90;;;;;;5041050;28;20041;-66
2022/04/14 04:17:53;;;;;;;44.22;26.70;;;8.30;99.90;;;;;;5050940;28;20060;-73
2022/04/14 04:20:20;;;;;;;42.17;24.67;;;8.20;99.90;;;;;;5052908;28;20033;-67
2022/04/14 04:22:46;;;;;;;42.33;25.40;;;8.20;99.90;;;;;;5057517;28;20033;-68
2022/04/14 04:25:12;;;;;;;39.60;24.42;;;8.30;99.90;;;;;;5056182;28;20033;-67
2022/04/14 04:27:38;;;;;;;35.53;22.38;;;8.20;99.90;;;;;;5057889;28;20036;-67
2022/04/14 04:30:08;;;;;;;38.35;23.08;;;8.10;99.90;;;;;;5062817;28;20025;-67
2022/04/14 04:32:34;;;;;;;38.38;25.20;;;8.10;99.90;;;;;;5053655;28;20097;-67
2022/04/14 04:35:04;;;;;;;35.88;21.77;;;8.00;99.90;;;;;;5060090;28;20040;-67
2022/04/14 04:37:30;;;;;;;34.33;21.30;;;8.00;99.90;;;;;;5061548;28;20053;-67
2022/04/14 04:39:56;;;;;;;43.55;24.80;;;7.90;99.90;;;;;;5054485;28;20029;-68
2022/04/14 04:42:22;;;;;;;33.85;21.67;;;7.90;99.90;;;;;;5059080;28;20544;-67
2022/04/14 04:44:48;;;;;;;36.25;21.45;;;7.90;99.90;;;;;;5057213;28;20039;-68
2022/04/14 04:47:14;;;;;;;38.83;23.50;;;7.80;99.90;;;;;;5059444;28;20101;-67
2022/04/14 04:49:40;;;;;;;45.33;25.90;;;7.70;99.90;;;;;;5053420;28;20036;-67
2022/04/14 04:52:05;;;;;;;42.70;24.48;;;7.80;99.90;;;;;;5061272;28;20033;-67
2022/04/14 04:54:31;;;;;;;36.67;21.95;;;7.80;99.90;;;;;;5067066;28;20080;-67
2022/04/14 04:56:57;;;;;;;42.17;25.80;;;7.80;99.90;;;;;;5069495;28;20428;-67
2022/04/14 04:59:22;;;;;;;41.80;24.75;;;7.90;99.90;;;;;;5072411;28;20568;-68
2022/04/14 05:01:48;;;;;;;34.33;22.38;;;7.90;99.90;;;;;;5071879;28;20031;-67
2022/04/14 05:04:14;;;;;;;41.13;25.15;;;7.80;99.90;;;;;;5073662;28;20057;-68
2022/04/14 05:06:39;;;;;;;40.33;24.45;;;7.80;99.90;;;;;;5069410;28;20063;-68
2022/04/14 05:09:06;;;;;;;36.05;22.83;;;7.80;99.90;;;;;;5062578;28;20032;-67
2022/04/14 05:11:32;;;;;;;43.97;25.42;;;7.70;99.90;;;;;;5058658;28;20043;-67
2022/04/14 05:13:58;;;;;;;48.47;27.85;;;7.70;99.90;;;;;;5075641;28;20021;-67
2022/04/14 05:16:25;;;;;;;44.90;27.83;;;7.80;99.90;;;;;;5064070;28;20054;-68
2022/04/14 05:18:50;;;;;;;41.53;25.98;;;7.80;99.90;;;;;;5064468;28;20370;-67
2022/04/14 05:21:16;;;;;;;48.40;28.35;;;7.80;99.90;;;;;;5072791;28;20097;-67
2022/04/14 05:23:42;;;;;;;45.05;26.67;;;7.80;99.90;;;;;;5067798;28;20054;-67
2022/04/14 05:26:08;;;;;;;45.20;27.85;;;7.80;99.90;;;;;;5065720;28;20027;-67
2022/04/14 05:28:34;;;;;;;50.20;29.52;;;7.90;99.90;;;;;;5056602;28;20040;-67
2022/04/14 05:31:00;;;;;;;50.08;30.15;;;8.00;99.90;;;;;;5059885;28;20057;-67
2022/04/14 05:33:26;;;;;;;45.88;27.02;;;8.00;99.90;;;;;;5068971;28;20104;-67
2022/04/14 05:35:51;;;;;;;51.75;31.00;;;8.10;99.90;;;;;;5064919;28;20037;-67
2022/04/14 05:38:17;;;;;;;49.35;30.00;;;8.20;99.90;;;;;;5068453;28;20090;-67
2022/04/14 05:40:45;;;;;;;45.88;28.83;;;8.20;99.90;;;;;;5061448;28;20025;-68
2022/04/14 05:43:18;;;;;;;47.42;29.25;;;8.30;99.90;;;;;;5066383;28;20071;-67
2022/04/14 05:45:47;;;;;;;58.85;32.45;;;8.60;99.90;;;;;;5064022;28;20024;-67
2022/04/14 05:48:13;;;;;;;45.55;29.88;;;9.00;99.90;;;;;;5073046;28;20036;-67
2022/04/14 05:50:43;;;;;;;51.80;31.35;;;9.60;99.90;;;;;;5058457;28;20033;-67
2022/04/14 05:53:10;;;;;;;50.22;30.55;;;10.10;99.90;;;;;;5069560;28;20041;-67
2022/04/14 05:55:35;;;;;;;46.28;28.90;;;10.70;99.90;;;;;;5064809;28;20050;-67
2022/04/14 05:58:03;;;;;;;47.22;27.45;;;11.00;99.90;;;;;;5055216;28;20037;-67
2022/04/14 06:00:30;;;;;;;44.88;28.38;;;11.40;99.90;;;;;;5058507;28;20118;-67
2022/04/14 06:02:56;;;;;;;40.92;27.65;;;11.60;99.90;;;;;;5058724;28;20025;-86
2022/04/14 06:05:22;;;;;;;43.25;26.50;;;11.80;99.90;;;;;;5042867;28;20036;-86
2022/04/14 06:07:48;;;;;;;40.78;25.92;;;11.80;99.90;;;;;;5067325;28;20036;-67
2022/04/14 06:10:15;;;;;;;41.45;26.38;;;12.10;99.90;;;;;;5067144;28;20036;-67
2022/04/14 06:12:41;;;;;;;38.08;26.73;;;12.40;99.90;;;;;;5045805;28;20024;-67
2022/04/14 06:15:07;;;;;;;38.33;24.27;;;12.80;99.90;;;;;;5061740;28;20037;-67
2022/04/14 06:17:33;;;;;;;38.78;24.38;;;13.10;99.90;;;;;;5059556;28;20053;-68
2022/04/14 06:19:58;;;;;;;33.58;22.58;;;13.60;99.90;;;;;;5061792;28;20025;-68
2022/04/14 06:22:24;;;;;;;37.53;24.98;;;13.80;99.90;;;;;;5059021;28;20053;-68
2022/04/14 06:24:49;;;;;;;41.28;26.00;;;13.80;99.90;;;;;;5059776;28;20036;-68
2022/04/14 06:27:15;;;;;;;35.75;23.52;;;14.20;99.90;;;;;;5057314;28;20017;-68
2022/04/14 06:29:41;;;;;;;36.08;23.67;;;14.60;99.90;;;;;;5061584;28;20036;-66
2022/04/14 06:32:07;;;;;;;35.10;23.58;;;15.20;99.90;;;;;;5057769;28;20017;-66
2022/04/14 06:34:32;;;;;;;35.28;23.35;;;15.70;99.90;;;;;;5044501;28;20037;-67
2022/04/14 06:36:58;;;;;;;37.20;24.83;;;16.40;99.90;;;;;;5041354;28;20116;-67
2022/04/14 06:39:24;;;;;;;39.42;25.13;;;16.70;99.90;;;;;;5063258;28;20025;-68
2022/04/14 06:41:49;;;;;;;36.53;23.58;;;17.10;99.90;;;;;;5049292;28;20109;-68
2022/04/14 06:44:15;;;;;;;35.95;23.30;;;17.70;99.90;;;;;;5040169;28;20430;-68
2022/04/14 06:46:41;;;;;;;35.38;22.08;;;17.90;99.90;;;;;;5043762;28;20469;-67
2022/04/14 06:49:06;;;;;;;38.03;22.95;;;18.50;99.90;;;;;;5059272;28;20465;-67
2022/04/14 06:51:32;;;;;;;38.13;23.83;;;18.60;99.90;;;;;;5061797;28;20025;-67
2022/04/14 06:53:59;;;;;;;35.15;22.65;;;18.20;99.90;;;;;;5058361;28;20052;-67
2022/04/14 06:56:24;;;;;;;36.67;23.15;;;18.10;99.90;;;;;;5057067;28;20061;-67
2022/04/14 06:58:50;;;;;;;33.47;21.13;;;17.60;99.90;;;;;;5061228;28;20131;-66
2022/04/14 07:01:15;;;;;;;32.35;21.55;;;17.20;99.90;;;;;;5056427;28;20028;-66
2022/04/14 07:03:41;;;;;;;34.50;22.30;;;16.90;99.90;;;;;;5043786;28;20017;-66
2022/04/14 07:06:07;;;;;;;34.45;22.40;;;16.90;99.90;;;;;;5059081;28;20424;-66
2022/04/14 07:08:33;;;;;;;35.72;22.30;;;16.90;99.90;;;;;;5060685;28;20098;-66
2022/04/14 07:11:00;;;;;;;36.25;23.40;;;16.80;99.90;;;;;;5057684;28;20025;-68
2022/04/14 07:13:26;;;;;;;35.25;22.23;;;16.80;99.90;;;;;;5059696;28;20112;-66
2022/04/14 07:15:52;;;;;;;35.72;22.70;;;16.70;99.90;;;;;;5059796;28;20029;-66
2022/04/14 07:18:18;;;;;;;38.50;22.23;;;16.50;99.90;;;;;;5057052;28;20099;-66
2022/04/14 07:20:46;;;;;;;35.03;22.52;;;16.50;99.90;;;;;;5058717;28;20044;-67
2022/04/14 07:23:12;;;;;;;34.72;22.45;;;16.60;99.90;;;;;;5059693;28;20434;-67
2022/04/14 07:25:38;;;;;;;37.00;23.00;;;16.50;99.90;;;;;;5060369;28;20088;-67
2022/04/14 07:28:03;;;;;;;37.20;21.88;;;16.50;99.90;;;;;;5059958;28;20064;-67
2022/04/14 07:30:31;;;;;;;33.63;21.52;;;16.60;99.90;;;;;;5041389;28;20029;-67
2022/04/14 07:32:57;;;;;;;35.50;21.88;;;16.60;99.90;;;;;;5060818;28;20025;-67
2022/04/14 07:35:25;;;;;;;36.25;21.90;;;16.60;99.90;;;;;;5057067;28;20031;-67
2022/04/14 07:37:51;;;;;;;33.80;21.85;;;16.80;99.90;;;;;;5060777;28;20053;-67
2022/04/14 07:40:18;;;;;;;34.25;19.20;;;16.70;99.90;;;;;;5058519;28;20025;-68
2022/04/14 07:42:45;;;;;;;29.35;19.70;;;16.90;99.90;;;;;;5059055;28;20032;-67
2022/04/14 07:45:13;;;;;;;30.60;18.73;;;17.40;99.90;;;;;;5057454;28;20037;-67
2022/04/14 07:47:42;;;;;;;30.98;19.15;;;18.30;99.90;;;;;;5060940;28;20032;-67
2022/04/14 07:50:13;;;;;;;26.48;16.55;;;18.70;99.90;;;;;;5057697;28;20025;-67
2022/04/14 07:52:50;;;;;;;24.33;17.37;;;19.70;99.90;;;;;;5058769;28;20044;-67
2022/04/14 07:55:27;;;;;;;27.65;16.48;;;20.20;99.90;;;;;;5059182;28;20296;-67
2022/04/14 07:57:56;;;;;;;24.67;15.77;;;20.70;99.90;;;;;;5044552;28;20029;-67
2022/04/14 08:00:23;;;;;;;21.98;14.20;;;21.40;99.90;;;;;;5058660;28;20063;-70
2022/04/14 08:03:00;;;;;;;25.30;14.52;;;22.20;99.90;;;;;;5058481;28;20028;-87
2022/04/14 08:05:36;;;;;;;22.35;13.75;;;22.40;97.30;;;;;;5057238;28;20064;-83
2022/04/14 08:08:07;;;;;;;21.33;12.93;;;22.70;94.40;;;;;;5061816;28;20025;-85
2022/04/14 08:10:33;;;;;;;19.50;11.80;;;23.30;91.90;;;;;;5031684;28;20033;-86
2022/04/14 08:12:59;;;;;;;19.58;11.93;;;23.80;91.90;;;;;;5036642;28;20021;-85
2022/04/14 08:15:25;;;;;;;19.65;11.27;;;24.10;79.30;;;;;;5051388;28;20075;-82
2022/04/14 08:17:51;;;;;;;17.40;11.40;;;24.50;75.20;;;;;;5054468;28;20079;-80
2022/04/14 08:20:17;;;;;;;17.33;11.43;;;24.90;68.50;;;;;;5054310;28;20817;-81
2022/04/14 08:22:47;;;;;;;18.95;11.82;;;25.20;65.00;;;;;;5061808;28;20484;-81
2022/04/14 08:25:28;;;;;;;15.88;10.48;;;24.80;58.60;;;;;;5070937;28;20032;-88
2022/04/14 08:27:54;;;;;;;15.48;10.00;;;24.90;56.90;;;;;;5056579;28;20058;-88
2022/04/14 08:30:23;;;;;;;17.77;11.25;;;25.00;58.10;;;;;;5057671;28;20048;-86
2022/04/14 08:32:50;;;;;;;17.17;11.30;;;24.80;53.50;;;;;;5050755;28;20029;-86
2022/04/14 08:35:17;;;;;;;16.60;11.23;;;25.50;53.90;;;;;;5060654;28;20025;-88
2022/04/14 08:37:43;;;;;;;17.20;11.70;;;25.70;55.00;;;;;;5042523;28;20556;-86
2022/04/14 08:40:23;;;;;;;18.20;11.45;;;25.80;54.40;;;;;;5059698;28;20022;-86
2022/04/14 08:42:57;;;;;;;18.02;11.68;;;25.20;53.40;;;;;;5050006;28;20451;-85
2022/04/14 08:45:25;;;;;;;15.77;11.20;;;25.70;54.00;;;;;;5050456;28;20033;-87
2022/04/14 08:47:51;;;;;;;17.23;11.82;;;26.30;52.30;;;;;;5040889;28;20048;-88
2022/04/14 08:50:18;;;;;;;20.63;12.00;;;26.70;52.90;;;;;;5038266;28;20049;-88
2022/04/14 08:52:44;;;;;;;16.70;11.18;;;27.10;50.00;;;;;;5054525;28;20033;-67
2022/04/14 08:55:11;;;;;;;19.95;11.70;;;26.40;50.90;;;;;;5059514;28;20036;-67
2022/04/14 08:57:41;;;;;;;20.75;11.98;;;26.60;49.50;;;;;;5053517;28;20037;-67
2022/04/14 09:00:09;;;;;;;18.98;11.88;;;27.10;48.70;;;;;;5079503;28;20058;-67
2022/04/14 09:02:35;;;;;;;18.92;12.20;;;27.60;50.50;;;;;;5053095;28;20034;-67
2022/04/14 09:05:02;;;;;;;18.02;11.88;;;27.10;47.80;;;;;;5057570;28;20053;-67
2022/04/14 09:07:28;;;;;;;21.00;13.43;;;26.80;48.80;;;;;;5053968;28;20060;-67
2022/04/14 09:09:53;;;;;;;18.75;12.77;;;26.70;51.50;;;;;;5060581;28;20045;-67
2022/04/14 09:12:19;;;;;;;18.42;12.63;;;26.40;47.90;;;;;;5063192;28;20025;-67
2022/04/14 09:14:46;;;;;;;17.27;12.30;;;26.60;51.10;;;;;;5062178;28;20418;-67
2022/04/14 09:17:12;;;;;;;17.27;12.23;;;25.90;53.80;;;;;;5063206;28;20071;-67
2022/04/14 09:19:38;;;;;;;16.90;12.40;;;24.70;55.00;;;;;;5061056;28;20041;-67
2022/04/14 09:22:12;;;;;;;15.23;11.05;;;24.30;56.60;;;;;;5062888;28;20446;-67
2022/04/14 09:24:49;;;;;;;17.17;12.07;;;24.20;64.60;;;;;;5063163;28;20059;-67
2022/04/14 09:27:26;;;;;;;19.55;12.80;;;23.70;70.20;;;;;;5062126;28;20028;-67
2022/04/14 09:29:54;;;;;;;19.52;13.23;;;23.50;69.00;;;;;;5064470;28;20055;-67
2022/04/14 09:32:42;;;;;;;18.20;11.85;;;23.50;70.70;;;;;;5061585;28;20049;-66
2022/04/14 09:35:31;;;;;;;20.13;13.35;;;23.30;66.30;;;;;;5063777;28;20140;-67
2022/04/14 09:38:13;;;;;;;18.52;12.25;;;22.90;69.80;;;;;;5062434;28;20056;-67
2022/04/14 09:40:39;;;;;;;19.15;12.77;;;22.90;77.20;;;;;;5061046;28;20055;-67
2022/04/14 09:43:05;;;;;;;18.05;13.13;;;23.00;72.90;;;;;;5063632;28;20053;-67
2022/04/14 09:45:33;;;;;;;18.33;13.05;;;23.20;72.50;;;;;;5064495;28;20021;-67
2022/04/14 09:48:04;;;;;;;19.83;13.88;;;23.10;65.70;;;;;;5064664;28;20025;-67
2022/04/14 09:50:39;;;;;;;19.45;13.85;;;23.70;64.40;;;;;;5062279;28;20048;-66
2022/04/14 09:53:14;;;;;;;18.55;13.75;;;23.70;67.30;;;;;;5061909;28;20028;-67
2022/04/14 09:55:57;;;;;;;19.55;13.90;;;24.40;66.20;;;;;;5062991;28;20053;-67
2022/04/14 09:58:24;;;;;;;16.45;12.15;;;24.80;54.00;;;;;;5062207;28;20040;-67
2022/04/14 10:00:53;;;;;;;18.60;11.65;;;25.40;56.90;;;;;;5060567;28;20051;-67
2022/04/14 10:03:23;;;;;;;16.27;12.25;;;26.20;53.20;;;;;;5062467;28;20550;-67
2022/04/14 10:05:50;;;;;;;18.58;11.93;;;26.80;50.30;;;;;;5061436;28;20456;-67
2022/04/14 10:08:17;;;;;;;15.80;10.65;;;27.30;49.50;;;;;;5062810;28;20037;-68
2022/04/14 10:10:44;;;;;;;19.08;10.93;;;27.50;46.90;;;;;;5061225;28;20032;-67
2022/04/14 10:13:18;;;;;;;15.23;10.90;;;27.60;46.10;;;;;;5062149;28;20087;-67
2022/04/14 10:15:45;;;;;;;14.93;10.23;;;27.10;45.20;;;;;;5061858;28;20064;-66
2022/04/14 10:18:13;;;;;;;14.77;10.43;;;27.50;46.80;;;;;;5061139;28;20045;-67
2022/04/14 10:20:40;;;;;;;15.23;9.23;;;27.60;46.50;;;;;;5062391;28;20407;-67
2022/04/14 10:23:08;;;;;;;14.18;9.63;;;27.60;44.60;;;;;;5061023;28;20021;-68
2022/04/14 10:25:37;;;;;;;11.55;7.22;;;27.60;43.90;;;;;;5062391;28;20095;-67
2022/04/14 10:28:05;;;;;;;10.70;6.43;;;27.60;45.20;;;;;;5060961;28;20091;-67
2022/04/14 10:30:31;;;;;;;9.75;6.47;;;28.40;45.00;;;;;;5061783;28;20033;-67
2022/04/14 10:32:57;;;;;;;10.20;6.53;;;27.40;43.30;;;;;;5061662;28;20047;-67
2022/04/14 10:35:28;;;;;;;9.43;5.85;;;27.00;43.20;;;;;;5061199;28;20071;-69
2022/04/14 10:38:04;;;;;;;10.63;5.50;;;26.60;45.00;;;;;;5061936;28;20045;-67
2022/04/14 10:40:32;;;;;;;9.73;6.18;;;26.80;45.60;;;;;;5060852;28;20036;-67
2022/04/14 10:42:58;;;;;;;10.07;5.22;;;26.90;44.20;;;;;;5060440;28;20079;-67
2022/04/14 10:45:24;;;;;;;12.60;5.90;;;27.50;47.70;;;;;;5059571;28;20029;-67
2022/04/14 10:47:50;;;;;;;10.07;6.10;;;28.20;45.10;;;;;;5061709;28;20021;-68
2022/04/14 10:50:31;;;;;;;10.85;6.03;;;28.30;42.70;;;;;;5060139;28;20057;-67
2022/04/14 10:53:04;;;;;;;10.15;5.00;;;28.10;44.40;;;;;;5059150;28;20025;-67
2022/04/14 10:55:42;;;;;;;10.40;5.13;;;27.30;42.50;;;;;;5061763;28;20024;-67
2022/04/14 10:58:37;;;;;;;9.45;5.20;;;28.00;46.10;;;;;;5060440;28;20035;-68
2022/04/14 11:01:03;;;;;;;9.10;5.22;;;28.10;42.20;;;;;;5060531;28;20055;-67
2022/04/14 11:03:55;;;;;;;13.25;6.63;;;27.60;42.40;;;;;;5061449;28;20025;-67
2022/04/14 11:06:47;;;;;;;11.38;7.18;;;26.50;43.30;;;;;;5058810;28;20156;-67
2022/04/14 11:09:38;;;;;;;12.35;7.03;;;25.70;47.00;;;;;;5061100;28;20535;-67
2022/04/14 11:12:05;;;;;;;10.82;6.25;;;26.20;47.60;;;;;;5061198;28;20037;-67
2022/04/14 11:14:35;;;;;;;9.95;5.43;;;26.30;52.60;;;;;;5058800;28;20021;-67
2022/04/14 11:17:03;;;;;;;9.32;4.90;;;27.00;47.50;;;;;;5061260;28;20048;-67
2022/04/14 11:19:30;;;;;;;10.43;5.10;;;26.80;45.60;;;;;;5060351;28;20025;-67
2022/04/14 11:22:01;;;;;;;9.60;5.05;;;27.30;45.00;;;;;;5060984;28;20039;-67
2022/04/14 11:24:36;;;;;;;11.98;5.68;;;27.50;44.60;;;;;;5060739;28;20044;-67
2022/04/14 11:27:12;;;;;;;12.10;4.95;;;27.40;43.40;;;;;;5060077;28;20036;-68
2022/04/14 11:29:38;;;;;;;9.80;3.60;;;27.90;44.60;;;;;;5061428;28;20025;-68
2022/04/14 11:32:05;;;;;;;7.18;3.38;;;26.80;42.10;;;;;;5059917;28;20036;-67
2022/04/14 11:34:32;;;;;;;6.55;3.22;;;26.50;44.10;;;;;;5059974;28;20029;-67
2022/04/14 11:36:58;;;;;;;10.98;4.55;;;27.00;44.10;;;;;;5060673;28;20029;-68
2022/04/14 11:39:25;;;;;;;9.23;4.65;;;26.70;43.10;;;;;;5060366;28;20462;-67
2022/04/14 11:41:53;;;;;;;9.43;4.95;;;25.40;44.90;;;;;;5060614;28;20053;-67
2022/04/14 11:44:30;;;;;;;11.23;5.07;;;24.50;48.00;;;;;;5059762;28;20071;-67
2022/04/14 11:46:58;;;;;;;9.48;4.60;;;23.70;49.40;;;;;;5061445;28;20033;-67
2022/04/14 11:49:29;;;;;;;11.23;5.30;;;23.50;52.00;;;;;;5059839;28;20629;-67
2022/04/14 11:52:00;;;;;;;10.43;4.85;;;24.90;52.60;;;;;;5059373;28;20028;-66
2022/04/14 11:54:29;;;;;;;8.20;4.20;;;24.80;49.80;;;;;;5059295;28;20036;-67
2022/04/14 11:56:56;;;;;;;9.23;4.13;;;26.20;52.80;;;;;;5059655;28;20029;-67
2022/04/14 11:59:31;;;;;;;7.90;3.05;;;26.00;49.90;;;;;;5060914;28;20033;-67
2022/04/14 12:02:00;;;;;;;8.27;3.35;;;24.90;47.80;;;;;;5061101;28;20040;-67
2022/04/14 12:04:25;;;;;;;10.82;4.72;;;24.60;47.60;;;;;;5065048;28;20041;-67
2022/04/14 12:06:56;;;;;;;8.27;3.38;;;24.60;51.30;;;;;;5064094;28;20024;-67
2022/04/14 12:09:24;;;;;;;7.13;2.60;;;24.30;48.10;;;;;;5062593;28;20025;-67
2022/04/14 12:11:50;;;;;;;8.13;2.75;;;24.10;49.00;;;;;;5064388;28;20033;-67
2022/04/14 12:14:16;;;;;;;8.18;3.17;;;24.60;50.80;;;;;;5062328;28;20025;-67
2022/04/14 12:16:52;;;;;;;9.05;2.95;;;24.10;48.40;;;;;;5064633;28;20615;-67
2022/04/14 12:19:19;;;;;;;9.68;2.58;;;24.30;51.10;;;;;;5062252;28;20641;-67
2022/04/14 12:22:02;;;;;;;10.27;3.63;;;25.00;52.10;;;;;;5063201;28;20032;-67
2022/04/14 12:24:29;;;;;;;9.68;3.83;;;25.30;50.20;;;;;;5063029;28;20025;-67
2022/04/14 12:26:58;;;;;;;9.50;4.25;;;24.00;50.40;;;;;;5045369;28;20434;-67
2022/04/14 12:29:24;;;;;;;9.00;3.65;;;24.20;50.40;;;;;;5064815;28;20031;-67
2022/04/14 12:32:08;;;;;;;8.73;3.47;;;23.80;52.50;;;;;;5063496;28;20021;-67
2022/04/14 12:34:34;;;;;;;9.07;3.60;;;24.10;56.00;;;;;;5064567;28;20064;-67
2022/04/14 12:37:13;;;;;;;7.18;3.22;;;23.70;50.90;;;;;;5062325;28;20033;-67